sensor_id;sensor_type;location;lat;lon;timestamp;P1;durP1;ratioP1;P2;durP2;ratioP2
21416;SDS011;10869;52.238;10.716;2024-01-30T00:01:58;12.10;;;7.50;;
21416;SDS011;10869;52.238;10.716;2024-01-30T00:04:24;14.80;;;7.03;;
21416;SDS011;10869;52.238;10.716;2024-01-30T00:06:50;13.93;;;7.00;;
21416;SDS011;10869;52.238;10.716;2024-01-30T00:09:17;13.10;;;6.63;;
21416;SDS011;10869;52.238;10.716;2024-01-30T00:11:44;13.30;;;7.73;;
21416;SDS011;10869;52.238;10.716;2024-01-30T00:14:10;12.00;;;6.93;;
21416;SDS011;10869;52.238;10.716;2024-01-30T00:16:36;10.77;;;6.53;;
21416;SDS011;10869;52.238;10.716;2024-01-30T00:19:02;13.70;;;7.40;;
21416;SDS011;10869;52.238;10.716;2024-01-30T00:21:28;13.87;;;7.10;;
21416;SDS011;10869;52.238;10.716;2024-01-30T00:23:54;15.20;;;7.17;;
21416;SDS011;10869;52.238;10.716;2024-01-30T00:26:20;11.90;;;6.73;;
21416;SDS011;10869;52.238;10.716;2024-01-30T00:28:46;14.80;;;7.90;;
21416;SDS011;10869;52.238;10.716;2024-01-30T00:31:12;13.07;;;7.10;;
21416;SDS011;10869;52.238;10.716;2024-01-30T00:33:41;14.77;;;7.27;;
21416;SDS011;10869;52.238;10.716;2024-01-30T00:36:07;14.80;;;7.53;;
21416;SDS011;10869;52.238;10.716;2024-01-30T00:38:34;12.53;;;7.47;;
21416;SDS011;10869;52.238;10.716;2024-01-30T00:41:01;13.30;;;7.00;;
21416;SDS011;10869;52.238;10.716;2024-01-30T00:43:27;10.47;;;6.77;;
21416;SDS011;10869;52.238;10.716;2024-01-30T00:45:53;11.87;;;7.30;;
21416;SDS011;10869;52.238;10.716;2024-01-30T00:48:19;13.53;;;7.17;;
21416;SDS011;10869;52.238;10.716;2024-01-30T00:50:45;12.20;;;6.67;;
21416;SDS011;10869;52.238;10.716;2024-01-30T00:53:11;12.07;;;7.83;;
21416;SDS011;10869;52.238;10.716;2024-01-30T00:55:37;12.10;;;7.20;;
21416;SDS011;10869;52.238;10.716;2024-01-30T00:58:03;14.47;;;7.70;;
21416;SDS011;10869;52.238;10.716;2024-01-30T01:00:29;14.40;;;7.10;;
21416;SDS011;10869;52.238;10.716;2024-01-30T01:02:57;12.50;;;7.00;;
21416;SDS011;10869;52.238;10.716;2024-01-30T01:05:23;13.17;;;7.63;;
21416;SDS011;10869;52.238;10.716;2024-01-30T01:07:49;13.20;;;7.53;;
21416;SDS011;10869;52.238;10.716;2024-01-30T01:10:15;13.03;;;8.13;;
21416;SDS011;10869;52.238;10.716;2024-01-30T01:12:47;12.63;;;7.87;;
21416;SDS011;10869;52.238;10.716;2024-01-30T01:15:13;14.57;;;7.80;;
21416;SDS011;10869;52.238;10.716;2024-01-30T01:17:39;16.70;;;7.80;;
21416;SDS011;10869;52.238;10.716;2024-01-30T01:20:05;12.17;;;7.73;;
21416;SDS011;10869;52.238;10.716;2024-01-30T01:22:32;13.33;;;7.70;;
21416;SDS011;10869;52.238;10.716;2024-01-30T01:24:59;13.00;;;7.63;;
21416;SDS011;10869;52.238;10.716;2024-01-30T01:27:25;13.67;;;7.93;;
21416;SDS011;10869;52.238;10.716;2024-01-30T01:29:51;12.73;;;7.77;;
21416;SDS011;10869;52.238;10.716;2024-01-30T01:32:17;11.87;;;7.27;;
21416;SDS011;10869;52.238;10.716;2024-01-30T01:34:43;12.33;;;7.13;;
21416;SDS011;10869;52.238;10.716;2024-01-30T01:37:09;13.53;;;7.90;;
21416;SDS011;10869;52.238;10.716;2024-01-30T01:39:35;12.43;;;7.40;;
21416;SDS011;10869;52.238;10.716;2024-01-30T01:42:01;11.23;;;7.23;;
21416;SDS011;10869;52.238;10.716;2024-01-30T01:44:27;15.70;;;8.07;;
21416;SDS011;10869;52.238;10.716;2024-01-30T01:46:53;13.20;;;8.23;;
21416;SDS011;10869;52.238;10.716;2024-01-30T01:49:19;14.70;;;7.60;;
21416;SDS011;10869;52.238;10.716;2024-01-30T01:51:50;13.87;;;8.37;;
21416;SDS011;10869;52.238;10.716;2024-01-30T01:57:41;16.93;;;7.77;;
21416;SDS011;10869;52.238;10.716;2024-01-30T02:00:07;11.83;;;6.90;;
21416;SDS011;10869;52.238;10.716;2024-01-30T02:02:35;11.87;;;7.00;;
21416;SDS011;10869;52.238;10.716;2024-01-30T02:05:02;12.60;;;7.73;;
21416;SDS011;10869;52.238;10.716;2024-01-30T02:07:29;15.40;;;7.77;;
21416;SDS011;10869;52.238;10.716;2024-01-30T02:09:54;12.07;;;7.00;;
21416;SDS011;10869;52.238;10.716;2024-01-30T02:12:20;12.10;;;7.50;;
21416;SDS011;10869;52.238;10.716;2024-01-30T02:14:47;12.73;;;7.63;;
21416;SDS011;10869;52.238;10.716;2024-01-30T02:17:14;14.37;;;7.63;;
21416;SDS011;10869;52.238;10.716;2024-01-30T02:19:43;15.97;;;7.93;;
21416;SDS011;10869;52.238;10.716;2024-01-30T02:22:09;15.07;;;7.70;;
21416;SDS011;10869;52.238;10.716;2024-01-30T02:24:35;14.43;;;8.43;;
21416;SDS011;10869;52.238;10.716;2024-01-30T02:27:00;17.73;;;7.93;;
21416;SDS011;10869;52.238;10.716;2024-01-30T02:29:26;14.03;;;8.33;;
21416;SDS011;10869;52.238;10.716;2024-01-30T02:31:52;18.43;;;8.77;;
21416;SDS011;10869;52.238;10.716;2024-01-30T02:34:18;12.90;;;8.03;;
21416;SDS011;10869;52.238;10.716;2024-01-30T02:36:44;14.37;;;7.60;;
21416;SDS011;10869;52.238;10.716;2024-01-30T02:39:10;14.23;;;7.43;;
21416;SDS011;10869;52.238;10.716;2024-01-30T02:41:36;12.40;;;7.50;;
21416;SDS011;10869;52.238;10.716;2024-01-30T02:44:03;15.40;;;7.97;;
21416;SDS011;10869;52.238;10.716;2024-01-30T02:46:29;15.43;;;7.77;;
21416;SDS011;10869;52.238;10.716;2024-01-30T02:48:55;13.83;;;7.97;;
21416;SDS011;10869;52.238;10.716;2024-01-30T02:51:21;13.00;;;7.37;;
21416;SDS011;10869;52.238;10.716;2024-01-30T02:53:46;13.23;;;7.50;;
21416;SDS011;10869;52.238;10.716;2024-01-30T02:56:12;13.77;;;7.60;;
21416;SDS011;10869;52.238;10.716;2024-01-30T02:58:41;14.60;;;8.70;;
21416;SDS011;10869;52.238;10.716;2024-01-30T03:01:07;13.27;;;8.03;;
21416;SDS011;10869;52.238;10.716;2024-01-30T03:03:33;14.20;;;8.17;;
21416;SDS011;10869;52.238;10.716;2024-01-30T03:06:01;17.13;;;8.03;;
21416;SDS011;10869;52.238;10.716;2024-01-30T03:08:27;13.23;;;8.47;;
21416;SDS011;10869;52.238;10.716;2024-01-30T03:10:53;10.73;;;7.50;;
21416;SDS011;10869;52.238;10.716;2024-01-30T03:13:19;16.93;;;8.00;;
21416;SDS011;10869;52.238;10.716;2024-01-30T03:15:48;14.80;;;8.20;;
21416;SDS011;10869;52.238;10.716;2024-01-30T03:18:14;12.57;;;7.97;;
21416;SDS011;10869;52.238;10.716;2024-01-30T03:20:39;15.40;;;8.37;;
21416;SDS011;10869;52.238;10.716;2024-01-30T03:23:05;15.03;;;8.63;;
21416;SDS011;10869;52.238;10.716;2024-01-30T03:25:31;16.27;;;8.83;;
21416;SDS011;10869;52.238;10.716;2024-01-30T03:27:57;18.47;;;8.57;;
21416;SDS011;10869;52.238;10.716;2024-01-30T03:30:22;18.13;;;8.70;;
21416;SDS011;10869;52.238;10.716;2024-01-30T03:32:48;15.70;;;8.70;;
21416;SDS011;10869;52.238;10.716;2024-01-30T03:35:14;13.23;;;7.80;;
21416;SDS011;10869;52.238;10.716;2024-01-30T03:37:40;16.80;;;8.83;;
21416;SDS011;10869;52.238;10.716;2024-01-30T03:40:06;12.97;;;8.33;;
21416;SDS011;10869;52.238;10.716;2024-01-30T03:42:32;15.83;;;8.30;;
21416;SDS011;10869;52.238;10.716;2024-01-30T03:44:58;15.27;;;8.00;;
21416;SDS011;10869;52.238;10.716;2024-01-30T03:47:23;13.03;;;8.23;;
21416;SDS011;10869;52.238;10.716;2024-01-30T03:49:49;16.73;;;7.73;;
21416;SDS011;10869;52.238;10.716;2024-01-30T03:55:37;17.23;;;8.20;;
21416;SDS011;10869;52.238;10.716;2024-01-30T03:58:03;10.60;;;7.27;;
21416;SDS011;10869;52.238;10.716;2024-01-30T04:00:29;19.37;;;7.83;;
21416;SDS011;10869;52.238;10.716;2024-01-30T04:02:54;16.77;;;7.90;;
21416;SDS011;10869;52.238;10.716;2024-01-30T04:05:20;14.03;;;7.73;;
21416;SDS011;10869;52.238;10.716;2024-01-30T04:07:46;12.87;;;8.93;;
21416;SDS011;10869;52.238;10.716;2024-01-30T04:10:12;15.87;;;7.67;;
21416;SDS011;10869;52.238;10.716;2024-01-30T04:12:37;13.10;;;8.50;;
21416;SDS011;10869;52.238;10.716;2024-01-30T04:15:03;15.70;;;7.90;;
21416;SDS011;10869;52.238;10.716;2024-01-30T04:17:29;13.40;;;8.30;;
21416;SDS011;10869;52.238;10.716;2024-01-30T04:19:55;16.93;;;7.60;;
21416;SDS011;10869;52.238;10.716;2024-01-30T04:22:21;15.17;;;7.53;;
21416;SDS011;10869;52.238;10.716;2024-01-30T04:24:47;13.17;;;8.07;;
21416;SDS011;10869;52.238;10.716;2024-01-30T04:27:12;15.43;;;7.93;;
21416;SDS011;10869;52.238;10.716;2024-01-30T04:29:38;14.33;;;7.20;;
21416;SDS011;10869;52.238;10.716;2024-01-30T04:32:04;14.20;;;7.37;;
21416;SDS011;10869;52.238;10.716;2024-01-30T04:34:30;12.60;;;7.13;;
21416;SDS011;10869;52.238;10.716;2024-01-30T04:36:56;13.73;;;7.43;;
21416;SDS011;10869;52.238;10.716;2024-01-30T04:39:22;14.43;;;7.63;;
21416;SDS011;10869;52.238;10.716;2024-01-30T04:41:48;17.23;;;7.83;;
21416;SDS011;10869;52.238;10.716;2024-01-30T04:44:14;14.10;;;7.70;;
21416;SDS011;10869;52.238;10.716;2024-01-30T04:46:40;12.87;;;7.67;;
21416;SDS011;10869;52.238;10.716;2024-01-30T04:49:06;15.60;;;7.97;;
21416;SDS011;10869;52.238;10.716;2024-01-30T04:51:34;13.83;;;7.47;;
21416;SDS011;10869;52.238;10.716;2024-01-30T04:54:00;13.67;;;7.20;;
21416;SDS011;10869;52.238;10.716;2024-01-30T04:56:25;11.73;;;6.67;;
21416;SDS011;10869;52.238;10.716;2024-01-30T04:58:51;16.23;;;8.33;;
21416;SDS011;10869;52.238;10.716;2024-01-30T05:01:17;11.67;;;7.10;;
21416;SDS011;10869;52.238;10.716;2024-01-30T05:03:43;16.00;;;8.57;;
21416;SDS011;10869;52.238;10.716;2024-01-30T05:06:09;13.37;;;6.87;;
21416;SDS011;10869;52.238;10.716;2024-01-30T05:08:35;14.70;;;7.20;;
21416;SDS011;10869;52.238;10.716;2024-01-30T05:11:04;14.17;;;7.53;;
21416;SDS011;10869;52.238;10.716;2024-01-30T05:13:31;12.30;;;7.40;;
21416;SDS011;10869;52.238;10.716;2024-01-30T05:15:57;16.23;;;7.10;;
21416;SDS011;10869;52.238;10.716;2024-01-30T05:18:22;14.43;;;7.27;;
21416;SDS011;10869;52.238;10.716;2024-01-30T05:20:51;14.53;;;7.43;;
21416;SDS011;10869;52.238;10.716;2024-01-30T05:23:17;10.40;;;6.50;;
21416;SDS011;10869;52.238;10.716;2024-01-30T05:25:43;12.60;;;7.03;;
21416;SDS011;10869;52.238;10.716;2024-01-30T05:28:08;12.90;;;7.07;;
21416;SDS011;10869;52.238;10.716;2024-01-30T05:30:34;11.37;;;6.83;;
21416;SDS011;10869;52.238;10.716;2024-01-30T05:33:00;13.17;;;6.70;;
21416;SDS011;10869;52.238;10.716;2024-01-30T05:35:26;18.10;;;7.43;;
21416;SDS011;10869;52.238;10.716;2024-01-30T05:37:51;12.30;;;6.63;;
21416;SDS011;10869;52.238;10.716;2024-01-30T05:40:17;12.93;;;7.40;;
21416;SDS011;10869;52.238;10.716;2024-01-30T05:42:43;16.93;;;7.87;;
21416;SDS011;10869;52.238;10.716;2024-01-30T05:45:09;16.47;;;7.83;;
21416;SDS011;10869;52.238;10.716;2024-01-30T05:47:35;14.53;;;7.90;;
21416;SDS011;10869;52.238;10.716;2024-01-30T05:50:00;10.83;;;6.17;;
21416;SDS011;10869;52.238;10.716;2024-01-30T05:52:26;18.93;;;7.97;;
21416;SDS011;10869;52.238;10.716;2024-01-30T05:54:52;18.37;;;8.23;;
21416;SDS011;10869;52.238;10.716;2024-01-30T05:57:21;12.00;;;6.80;;
21416;SDS011;10869;52.238;10.716;2024-01-30T05:59:47;15.37;;;7.37;;
21416;SDS011;10869;52.238;10.716;2024-01-30T06:02:13;12.17;;;6.70;;
21416;SDS011;10869;52.238;10.716;2024-01-30T06:04:39;15.37;;;7.50;;
21416;SDS011;10869;52.238;10.716;2024-01-30T06:07:05;11.40;;;6.90;;
21416;SDS011;10869;52.238;10.716;2024-01-30T06:09:31;12.83;;;7.27;;
21416;SDS011;10869;52.238;10.716;2024-01-30T06:11:58;14.83;;;8.00;;
21416;SDS011;10869;52.238;10.716;2024-01-30T06:14:24;19.30;;;7.70;;
21416;SDS011;10869;52.238;10.716;2024-01-30T06:16:50;15.53;;;7.50;;
21416;SDS011;10869;52.238;10.716;2024-01-30T06:19:16;13.07;;;6.80;;
21416;SDS011;10869;52.238;10.716;2024-01-30T06:21:44;12.10;;;7.37;;
21416;SDS011;10869;52.238;10.716;2024-01-30T06:24:10;17.47;;;7.73;;
21416;SDS011;10869;52.238;10.716;2024-01-30T06:26:36;12.23;;;7.13;;
21416;SDS011;10869;52.238;10.716;2024-01-30T06:29:02;12.90;;;7.37;;
21416;SDS011;10869;52.238;10.716;2024-01-30T06:34:50;12.27;;;6.97;;
21416;SDS011;10869;52.238;10.716;2024-01-30T06:37:18;15.23;;;7.77;;
21416;SDS011;10869;52.238;10.716;2024-01-30T06:39:44;12.77;;;7.67;;
21416;SDS011;10869;52.238;10.716;2024-01-30T06:42:10;18.80;;;7.93;;
21416;SDS011;10869;52.238;10.716;2024-01-30T06:44:36;12.53;;;7.57;;
21416;SDS011;10869;52.238;10.716;2024-01-30T06:47:02;13.97;;;7.27;;
21416;SDS011;10869;52.238;10.716;2024-01-30T06:49:28;19.60;;;7.57;;
21416;SDS011;10869;52.238;10.716;2024-01-30T06:55:16;14.87;;;6.93;;
21416;SDS011;10869;52.238;10.716;2024-01-30T06:57:42;12.40;;;7.07;;
21416;SDS011;10869;52.238;10.716;2024-01-30T07:00:08;14.53;;;7.57;;
21416;SDS011;10869;52.238;10.716;2024-01-30T07:05:56;13.43;;;7.60;;
21416;SDS011;10869;52.238;10.716;2024-01-30T07:11:44;13.60;;;7.13;;
21416;SDS011;10869;52.238;10.716;2024-01-30T07:14:10;15.83;;;7.73;;
21416;SDS011;10869;52.238;10.716;2024-01-30T07:16:35;13.33;;;7.47;;
21416;SDS011;10869;52.238;10.716;2024-01-30T07:19:01;13.13;;;7.47;;
21416;SDS011;10869;52.238;10.716;2024-01-30T07:21:27;16.80;;;8.20;;
21416;SDS011;10869;52.238;10.716;2024-01-30T07:23:55;14.03;;;7.67;;
21416;SDS011;10869;52.238;10.716;2024-01-30T07:26:22;15.53;;;7.50;;
21416;SDS011;10869;52.238;10.716;2024-01-30T07:28:48;10.70;;;6.30;;
21416;SDS011;10869;52.238;10.716;2024-01-30T07:31:15;16.30;;;8.30;;
21416;SDS011;10869;52.238;10.716;2024-01-30T07:33:41;12.93;;;6.30;;
21416;SDS011;10869;52.238;10.716;2024-01-30T07:39:33;15.50;;;7.30;;
21416;SDS011;10869;52.238;10.716;2024-01-30T07:45:20;13.27;;;6.93;;
21416;SDS011;10869;52.238;10.716;2024-01-30T07:47:50;15.87;;;7.47;;
21416;SDS011;10869;52.238;10.716;2024-01-30T07:50:17;15.47;;;7.00;;
21416;SDS011;10869;52.238;10.716;2024-01-30T07:56:05;14.50;;;6.90;;
21416;SDS011;10869;52.238;10.716;2024-01-30T07:58:31;14.53;;;7.27;;
21416;SDS011;10869;52.238;10.716;2024-01-30T08:00:57;12.47;;;6.73;;
21416;SDS011;10869;52.238;10.716;2024-01-30T08:16:22;16.20;;;6.50;;
21416;SDS011;10869;52.238;10.716;2024-01-30T08:18:53;14.03;;;6.73;;
21416;SDS011;10869;52.238;10.716;2024-01-30T08:21:22;12.30;;;6.80;;
21416;SDS011;10869;52.238;10.716;2024-01-30T08:23:52;13.37;;;7.20;;
21416;SDS011;10869;52.238;10.716;2024-01-30T08:29:42;18.67;;;7.73;;
21416;SDS011;10869;52.238;10.716;2024-01-30T08:32:08;16.93;;;7.23;;
21416;SDS011;10869;52.238;10.716;2024-01-30T08:34:33;16.63;;;7.17;;
21416;SDS011;10869;52.238;10.716;2024-01-30T08:36:59;12.97;;;6.70;;
21416;SDS011;10869;52.238;10.716;2024-01-30T09:39:05;17.67;;;7.27;;
21416;SDS011;10869;52.238;10.716;2024-01-30T09:41:32;16.00;;;6.50;;
21416;SDS011;10869;52.238;10.716;2024-01-30T09:44:01;12.00;;;6.97;;
21416;SDS011;10869;52.238;10.716;2024-01-30T09:46:28;14.93;;;6.53;;
21416;SDS011;10869;52.238;10.716;2024-01-30T09:48:57;13.07;;;6.97;;
21416;SDS011;10869;52.238;10.716;2024-01-30T09:51:23;13.73;;;6.97;;
21416;SDS011;10869;52.238;10.716;2024-01-30T09:53:50;12.07;;;6.60;;
21416;SDS011;10869;52.238;10.716;2024-01-30T09:56:17;11.87;;;6.10;;
21416;SDS011;10869;52.238;10.716;2024-01-30T09:58:43;16.07;;;6.60;;
21416;SDS011;10869;52.238;10.716;2024-01-30T10:01:12;15.90;;;6.70;;
21416;SDS011;10869;52.238;10.716;2024-01-30T10:03:41;14.77;;;7.17;;
21416;SDS011;10869;52.238;10.716;2024-01-30T10:06:07;13.63;;;6.97;;
21416;SDS011;10869;52.238;10.716;2024-01-30T10:08:34;10.77;;;6.40;;
21416;SDS011;10869;52.238;10.716;2024-01-30T10:11:00;12.83;;;6.37;;
21416;SDS011;10869;52.238;10.716;2024-01-30T10:13:26;12.07;;;6.53;;
21416;SDS011;10869;52.238;10.716;2024-01-30T10:15:52;11.33;;;5.63;;
21416;SDS011;10869;52.238;10.716;2024-01-30T10:18:18;12.77;;;5.87;;
21416;SDS011;10869;52.238;10.716;2024-01-30T10:20:44;13.70;;;6.53;;
21416;SDS011;10869;52.238;10.716;2024-01-30T10:56:42;10.43;;;5.87;;
21416;SDS011;10869;52.238;10.716;2024-01-30T11:30:34;13.70;;;6.33;;
21416;SDS011;10869;52.238;10.716;2024-01-30T11:36:25;16.67;;;7.30;;
21416;SDS011;10869;52.238;10.716;2024-01-30T11:38:52;12.20;;;6.40;;
21416;SDS011;10869;52.238;10.716;2024-01-30T11:44:41;8.57;;;5.30;;
21416;SDS011;10869;52.238;10.716;2024-01-30T11:52:22;12.73;;;6.93;;
21416;SDS011;10869;52.238;10.716;2024-01-30T11:54:48;12.30;;;6.27;;
21416;SDS011;10869;52.238;10.716;2024-01-30T12:04:57;11.70;;;6.13;;
21416;SDS011;10869;52.238;10.716;2024-01-30T12:07:25;12.70;;;6.10;;
21416;SDS011;10869;52.238;10.716;2024-01-30T12:09:52;11.93;;;6.20;;
21416;SDS011;10869;52.238;10.716;2024-01-30T12:12:25;11.10;;;6.07;;
21416;SDS011;10869;52.238;10.716;2024-01-30T12:14:55;10.97;;;5.97;;
21416;SDS011;10869;52.238;10.716;2024-01-30T12:22:40;11.53;;;6.10;;
21416;SDS011;10869;52.238;10.716;2024-01-30T12:25:08;10.27;;;6.30;;
21416;SDS011;10869;52.238;10.716;2024-01-30T12:27:48;11.20;;;6.37;;
21416;SDS011;10869;52.238;10.716;2024-01-30T12:30:18;12.13;;;6.43;;
21416;SDS011;10869;52.238;10.716;2024-01-30T12:35:37;12.77;;;6.03;;
21416;SDS011;10869;52.238;10.716;2024-01-30T12:38:03;13.90;;;6.47;;
21416;SDS011;10869;52.238;10.716;2024-01-30T12:40:28;11.63;;;6.33;;
21416;SDS011;10869;52.238;10.716;2024-01-30T12:42:54;12.27;;;6.17;;
21416;SDS011;10869;52.238;10.716;2024-01-30T12:45:20;9.83;;;6.27;;
21416;SDS011;10869;52.238;10.716;2024-01-30T12:47:50;11.47;;;5.73;;
21416;SDS011;10869;52.238;10.716;2024-01-30T12:50:16;9.57;;;5.40;;
21416;SDS011;10869;52.238;10.716;2024-01-30T12:55:17;10.20;;;5.80;;
21416;SDS011;10869;52.238;10.716;2024-01-30T12:57:43;11.73;;;6.37;;
21416;SDS011;10869;52.238;10.716;2024-01-30T13:00:09;12.23;;;6.87;;
21416;SDS011;10869;52.238;10.716;2024-01-30T13:02:35;14.80;;;7.00;;
21416;SDS011;10869;52.238;10.716;2024-01-30T13:05:02;11.80;;;5.80;;
21416;SDS011;10869;52.238;10.716;2024-01-30T13:07:29;10.80;;;6.07;;
21416;SDS011;10869;52.238;10.716;2024-01-30T13:09:56;9.37;;;5.83;;
21416;SDS011;10869;52.238;10.716;2024-01-30T13:12:27;12.97;;;6.50;;
21416;SDS011;10869;52.238;10.716;2024-01-30T13:14:53;8.90;;;5.93;;
21416;SDS011;10869;52.238;10.716;2024-01-30T13:17:19;13.57;;;6.00;;
21416;SDS011;10869;52.238;10.716;2024-01-30T13:19:45;12.40;;;5.97;;
21416;SDS011;10869;52.238;10.716;2024-01-30T13:22:13;13.97;;;6.50;;
21416;SDS011;10869;52.238;10.716;2024-01-30T13:24:39;11.80;;;6.73;;
21416;SDS011;10869;52.238;10.716;2024-01-30T13:27:05;12.37;;;7.07;;
21416;SDS011;10869;52.238;10.716;2024-01-30T13:29:32;9.37;;;5.97;;
21416;SDS011;10869;52.238;10.716;2024-01-30T13:35:20;10.90;;;6.40;;
21416;SDS011;10869;52.238;10.716;2024-01-30T13:37:46;13.97;;;6.73;;
21416;SDS011;10869;52.238;10.716;2024-01-30T13:45:23;10.87;;;5.93;;
21416;SDS011;10869;52.238;10.716;2024-01-30T13:47:52;12.60;;;6.53;;
21416;SDS011;10869;52.238;10.716;2024-01-30T13:50:18;13.37;;;6.20;;
21416;SDS011;10869;52.238;10.716;2024-01-30T13:52:47;13.97;;;6.73;;
21416;SDS011;10869;52.238;10.716;2024-01-30T13:55:14;14.23;;;6.03;;
21416;SDS011;10869;52.238;10.716;2024-01-30T13:57:40;10.77;;;6.53;;
21416;SDS011;10869;52.238;10.716;2024-01-30T14:00:06;12.07;;;6.60;;
21416;SDS011;10869;52.238;10.716;2024-01-30T14:15:29;9.97;;;5.57;;
21416;SDS011;10869;52.238;10.716;2024-01-30T14:17:55;11.30;;;5.93;;
21416;SDS011;10869;52.238;10.716;2024-01-30T14:20:21;12.17;;;6.13;;
21416;SDS011;10869;52.238;10.716;2024-01-30T14:22:47;11.20;;;6.17;;
21416;SDS011;10869;52.238;10.716;2024-01-30T14:25:13;13.53;;;6.33;;
21416;SDS011;10869;52.238;10.716;2024-01-30T15:34:59;12.00;;;7.50;;
21416;SDS011;10869;52.238;10.716;2024-01-30T15:37:28;14.27;;;7.13;;
21416;SDS011;10869;52.238;10.716;2024-01-30T15:40:00;11.87;;;6.90;;
21416;SDS011;10869;52.238;10.716;2024-01-30T15:42:27;13.63;;;7.77;;
21416;SDS011;10869;52.238;10.716;2024-01-30T15:44:53;15.53;;;8.90;;
21416;SDS011;10869;52.238;10.716;2024-01-30T15:47:19;13.27;;;7.17;;
21416;SDS011;10869;52.238;10.716;2024-01-30T15:49:45;15.20;;;7.47;;
21416;SDS011;10869;52.238;10.716;2024-01-30T15:52:11;13.27;;;7.20;;
21416;SDS011;10869;52.238;10.716;2024-01-30T16:56:46;15.77;;;7.93;;
21416;SDS011;10869;52.238;10.716;2024-01-30T16:59:15;16.93;;;7.23;;
21416;SDS011;10869;52.238;10.716;2024-01-30T17:01:41;12.90;;;7.07;;
21416;SDS011;10869;52.238;10.716;2024-01-30T17:04:10;15.80;;;7.63;;
21416;SDS011;10869;52.238;10.716;2024-01-30T17:06:37;12.57;;;7.70;;
21416;SDS011;10869;52.238;10.716;2024-01-30T17:09:02;14.93;;;8.20;;
21416;SDS011;10869;52.238;10.716;2024-01-30T17:11:28;17.30;;;8.07;;
21416;SDS011;10869;52.238;10.716;2024-01-30T17:13:54;17.50;;;10.23;;
21416;SDS011;10869;52.238;10.716;2024-01-30T17:16:20;17.20;;;9.33;;
21416;SDS011;10869;52.238;10.716;2024-01-30T17:18:46;17.17;;;9.77;;
21416;SDS011;10869;52.238;10.716;2024-01-30T17:21:21;13.50;;;7.83;;
21416;SDS011;10869;52.238;10.716;2024-01-30T17:23:47;18.73;;;9.00;;
21416;SDS011;10869;52.238;10.716;2024-01-30T17:26:13;15.90;;;7.80;;
21416;SDS011;10869;52.238;10.716;2024-01-30T17:28:39;15.47;;;8.10;;
21416;SDS011;10869;52.238;10.716;2024-01-30T17:34:27;11.70;;;7.57;;
21416;SDS011;10869;52.238;10.716;2024-01-30T17:40:14;14.40;;;8.43;;
21416;SDS011;10869;52.238;10.716;2024-01-30T17:42:40;13.03;;;7.97;;
21416;SDS011;10869;52.238;10.716;2024-01-30T17:45:06;16.93;;;8.50;;
21416;SDS011;10869;52.238;10.716;2024-01-30T17:47:32;15.77;;;8.90;;
21416;SDS011;10869;52.238;10.716;2024-01-30T17:49:57;14.33;;;8.53;;
21416;SDS011;10869;52.238;10.716;2024-01-30T17:52:23;15.00;;;7.77;;
21416;SDS011;10869;52.238;10.716;2024-01-30T17:54:49;17.40;;;9.40;;
21416;SDS011;10869;52.238;10.716;2024-01-30T17:57:15;17.70;;;11.90;;
21416;SDS011;10869;52.238;10.716;2024-01-30T17:59:42;16.50;;;10.63;;
21416;SDS011;10869;52.238;10.716;2024-01-30T18:02:08;20.00;;;11.33;;
21416;SDS011;10869;52.238;10.716;2024-01-30T18:04:36;17.73;;;9.73;;
21416;SDS011;10869;52.238;10.716;2024-01-30T18:07:04;18.07;;;9.27;;
21416;SDS011;10869;52.238;10.716;2024-01-30T18:09:30;15.27;;;8.63;;
21416;SDS011;10869;52.238;10.716;2024-01-30T18:11:56;14.20;;;7.87;;
21416;SDS011;10869;52.238;10.716;2024-01-30T18:14:22;16.93;;;8.40;;
21416;SDS011;10869;52.238;10.716;2024-01-30T18:16:48;15.57;;;8.80;;
21416;SDS011;10869;52.238;10.716;2024-01-30T18:24:25;21.77;;;9.63;;
21416;SDS011;10869;52.238;10.716;2024-01-30T18:26:52;17.87;;;9.93;;
21416;SDS011;10869;52.238;10.716;2024-01-30T18:29:18;20.80;;;11.10;;
21416;SDS011;10869;52.238;10.716;2024-01-30T18:31:43;16.07;;;9.90;;
21416;SDS011;10869;52.238;10.716;2024-01-30T18:36:52;17.27;;;10.47;;
21416;SDS011;10869;52.238;10.716;2024-01-30T18:42:12;16.97;;;9.03;;
21416;SDS011;10869;52.238;10.716;2024-01-30T18:44:39;16.00;;;9.87;;
21416;SDS011;10869;52.238;10.716;2024-01-30T18:47:11;20.07;;;8.77;;
21416;SDS011;10869;52.238;10.716;2024-01-30T18:49:40;16.27;;;8.97;;
21416;SDS011;10869;52.238;10.716;2024-01-30T18:52:06;16.03;;;8.90;;
21416;SDS011;10869;52.238;10.716;2024-01-30T18:54:33;18.53;;;9.67;;
21416;SDS011;10869;52.238;10.716;2024-01-30T18:56:58;15.40;;;9.53;;
21416;SDS011;10869;52.238;10.716;2024-01-30T18:59:24;20.17;;;9.90;;
21416;SDS011;10869;52.238;10.716;2024-01-30T19:01:50;18.23;;;9.27;;
21416;SDS011;10869;52.238;10.716;2024-01-30T19:04:16;15.80;;;9.13;;
21416;SDS011;10869;52.238;10.716;2024-01-30T19:06:42;19.23;;;10.40;;
21416;SDS011;10869;52.238;10.716;2024-01-30T19:09:08;16.57;;;9.10;;
21416;SDS011;10869;52.238;10.716;2024-01-30T19:14:57;18.93;;;9.80;;
21416;SDS011;10869;52.238;10.716;2024-01-30T19:17:23;18.67;;;9.50;;
21416;SDS011;10869;52.238;10.716;2024-01-30T19:19:50;21.53;;;10.33;;
21416;SDS011;10869;52.238;10.716;2024-01-30T19:22:22;19.40;;;9.93;;
21416;SDS011;10869;52.238;10.716;2024-01-30T19:25:13;19.03;;;10.20;;
21416;SDS011;10869;52.238;10.716;2024-01-30T19:27:39;17.63;;;11.87;;
21416;SDS011;10869;52.238;10.716;2024-01-30T19:30:07;19.10;;;11.77;;
21416;SDS011;10869;52.238;10.716;2024-01-30T19:32:36;20.43;;;11.67;;
21416;SDS011;10869;52.238;10.716;2024-01-30T19:37:38;22.77;;;12.30;;
21416;SDS011;10869;52.238;10.716;2024-01-30T19:40:04;19.00;;;11.60;;
21416;SDS011;10869;52.238;10.716;2024-01-30T19:42:30;16.33;;;11.43;;
21416;SDS011;10869;52.238;10.716;2024-01-30T19:44:56;18.93;;;11.23;;
21416;SDS011;10869;52.238;10.716;2024-01-30T19:50:44;17.23;;;10.87;;
21416;SDS011;10869;52.238;10.716;2024-01-30T19:56:32;19.80;;;11.90;;
21416;SDS011;10869;52.238;10.716;2024-01-30T19:58:57;18.70;;;11.93;;
21416;SDS011;10869;52.238;10.716;2024-01-30T20:01:23;18.60;;;12.10;;
21416;SDS011;10869;52.238;10.716;2024-01-30T20:03:49;18.57;;;11.80;;
21416;SDS011;10869;52.238;10.716;2024-01-30T20:06:14;22.57;;;11.43;;
21416;SDS011;10869;52.238;10.716;2024-01-30T20:08:40;23.60;;;12.70;;
21416;SDS011;10869;52.238;10.716;2024-01-30T20:11:15;25.33;;;15.03;;
21416;SDS011;10869;52.238;10.716;2024-01-30T20:13:40;23.97;;;13.07;;
21416;SDS011;10869;52.238;10.716;2024-01-30T20:16:07;17.83;;;12.10;;
21416;SDS011;10869;52.238;10.716;2024-01-30T20:18:33;18.50;;;12.10;;
21416;SDS011;10869;52.238;10.716;2024-01-30T20:20:59;18.17;;;11.53;;
21416;SDS011;10869;52.238;10.716;2024-01-30T20:26:46;24.50;;;12.87;;
21416;SDS011;10869;52.238;10.716;2024-01-30T20:34:23;24.03;;;12.83;;
21416;SDS011;10869;52.238;10.716;2024-01-30T20:36:49;19.40;;;12.37;;
21416;SDS011;10869;52.238;10.716;2024-01-30T20:39:14;19.17;;;12.47;;
21416;SDS011;10869;52.238;10.716;2024-01-30T20:41:43;19.57;;;11.23;;
21416;SDS011;10869;52.238;10.716;2024-01-30T20:44:10;17.17;;;10.17;;
21416;SDS011;10869;52.238;10.716;2024-01-30T20:54:27;15.87;;;8.53;;
21416;SDS011;10869;52.238;10.716;2024-01-30T20:59:39;13.07;;;7.27;;